Time;durP1;ratioP1;P1;durP2;ratioP2;P2;SDS_P1;SDS_P2;PMS_P1;PMS_P2;Temp;Humidity;BMP_temperature;BMP_pressure;BME280_temperature;BME280_humidity;BME280_pressure;Samples;Min_cycle;Max_cycle;Signal;HPM_P1;HPM_P2
2022/11/24 08:37:31;;;;;;;;;1.00;1.00;;;;;19.81;41.63;100778.16;5057552;28;45303;-53
2022/11/24 08:39:56;;;;;;;;;1.00;1.00;;;;;19.83;41.16;100788.56;5058477;28;45421;-53
2022/11/24 08:42:22;;;;;;;;;1.00;1.00;;;;;19.83;41.12;100788.56;5065208;28;45296;-50
2022/11/24 08:44:47;;;;;;;;;0.00;0.00;;;;;19.82;41.47;100786.88;5070040;28;53397;-52
2022/11/24 08:47:12;;;;;;;;;2.50;1.00;;;;;19.81;41.62;100780.78;5076441;28;44893;-53
2022/11/24 08:49:38;;;;;;;;;1.50;0.00;;;;;19.82;41.65;100782.47;5075613;28;46302;-50
2022/11/24 08:52:03;;;;;;;;;1.25;1.25;;;;;19.82;41.52;100781.63;5058440;28;45444;-52
2022/11/24 08:54:28;;;;;;;;;0.00;0.00;;;;;19.82;41.42;100781.63;5082263;28;44769;-50
2022/11/24 08:56:54;;;;;;;;;2.00;1.00;;;;;19.81;41.60;100779.91;5067559;28;45362;-53
2022/11/24 08:59:19;;;;;;;;;1.75;1.75;;;;;19.82;41.83;100773.72;5056602;28;46202;-50
2022/11/24 09:01:44;;;;;;;;;1.00;1.00;;;;;19.78;41.51;100776.53;5056192;28;45363;-53
2022/11/24 09:04:10;;;;;;;;;2.25;2.25;;;;;19.80;41.47;100784.34;5059366;28;45576;-54
2022/11/24 09:06:35;;;;;;;;;1.75;1.75;;;;;19.79;41.61;100787.91;5059706;28;45388;-54
2022/11/24 09:09:01;;;;;;;;;1.25;1.00;;;;;19.80;41.48;100788.72;5059278;28;46455;-53
2022/11/24 09:11:27;;;;;;;;;2.25;1.00;;;;;19.81;41.20;100787.81;5059530;28;45182;-51
2022/11/24 09:13:53;;;;;;;;;1.00;1.00;;;;;19.81;41.70;100788.66;5058952;28;45311;-51
2022/11/24 09:16:25;;;;;;;;;2.00;1.00;;;;;19.80;41.16;100784.34;5060068;28;45681;-50
2022/11/24 09:19:02;;;;;;;;;1.75;1.00;;;;;19.79;41.11;100790.53;5061003;28;47188;-51
2022/11/24 09:21:29;;;;;;;;;0.75;0.75;;;;;19.79;41.74;100787.91;5078408;28;45716;-53
2022/11/24 09:23:55;;;;;;;;;1.00;1.00;;;;;19.81;41.77;100793.06;5077314;28;45158;-52
2022/11/24 09:26:22;;;;;;;;;2.25;1.00;;;;;19.78;41.26;100788.81;5066889;28;45219;-53
2022/11/24 09:28:48;;;;;;;;;0.75;0.75;;;;;19.81;41.91;100801.81;5062066;28;46305;-51
2022/11/24 09:31:15;;;;;;;;;2.00;2.00;;;;;19.78;41.39;100797.56;5068964;28;45504;-53
2022/11/24 09:33:42;;;;;;;;;4.25;1.00;;;;;19.81;41.63;100800.94;5083853;28;44611;-54
2022/11/24 09:36:08;;;;;;;;;1.75;1.00;;;;;19.81;42.09;100785.16;5065381;28;45185;-51
2022/11/24 09:38:34;;;;;;;;;1.75;1.00;;;;;19.82;41.50;100792.13;5065585;28;45390;-46
2022/11/24 09:41:12;;;;;;;;;4.00;3.00;;;;;19.83;41.61;100783.31;5066062;28;45227;-51
2022/11/24 09:43:43;;;;;;;;;1.75;1.75;;;;;19.83;41.61;100778.91;5065335;28;45453;-52
2022/11/24 09:46:22;;;;;;;;;2.00;1.00;;;;;19.84;42.12;100785.00;5063617;28;45365;-51
2022/11/24 09:48:53;;;;;;;;;4.25;2.00;;;;;19.86;42.05;100783.19;5058661;28;46193;-53
2022/11/24 09:51:23;;;;;;;;;1.00;0.00;;;;;19.80;41.64;100775.56;5058617;28;45250;-50
2022/11/24 09:54:01;;;;;;;;;3.75;1.00;;;;;19.85;41.67;100787.56;5058756;28;45255;-51
2022/11/24 09:56:29;;;;;;;;;2.00;2.00;;;;;19.86;41.99;100785.81;5059259;28;45322;-51
2022/11/24 09:59:04;;;;;;;;;2.50;2.00;;;;;19.87;42.06;100801.50;5058431;28;46227;-53
2022/11/24 10:01:32;;;;;;;;;2.25;1.00;;;;;19.86;41.85;100804.22;5058782;28;45358;-52
2022/11/24 10:03:59;;;;;;;;;1.25;1.25;;;;;19.89;41.96;100814.59;5058776;28;45325;-50
2022/11/24 10:06:33;;;;;;;;;2.25;2.25;;;;;19.89;41.63;100809.34;5058652;28;45320;-51
2022/11/24 10:09:43;;;;;;;;;1.00;1.00;;;;;19.88;42.03;100818.16;5058362;28;46883;-48
2022/11/24 10:12:42;;;;;;;;;2.75;2.00;;;;;19.88;41.87;100819.00;5057992;28;45244;-55
2022/11/24 10:16:05;;;;;;;;;1.25;1.25;;;;;19.87;41.65;100809.41;5058481;28;45376;-53
2022/11/24 10:18:56;;;;;;;;;3.75;2.00;;;;;19.86;42.14;100801.59;4995588;28;45452;-54
2022/11/24 10:21:31;;;;;;;;;4.00;2.50;;;;;19.85;41.74;100799.88;4995363;28;46366;-55
2022/11/24 10:24:34;;;;;;;;;1.00;1.00;;;;;19.84;42.00;100787.66;5053513;28;45265;-54
2022/11/24 10:27:17;;;;;;;;;2.25;1.75;;;;;19.85;42.00;100791.97;5068422;28;45403;-52
2022/11/24 10:29:45;;;;;;;;;1.50;1.00;;;;;19.83;41.65;100784.19;5058417;28;45331;-54
2022/11/24 10:32:20;;;;;;;;;2.00;2.00;;;;;19.84;42.08;100779.75;5062152;28;47374;-53
2022/11/24 10:34:50;;;;;;;;;2.00;2.00;;;;;19.84;41.59;100775.38;5083251;28;45202;-54
2022/11/24 10:37:20;;;;;;;;;1.00;1.00;;;;;19.84;41.68;100777.13;5063561;28;45387;-55
2022/11/24 10:39:58;;;;;;;;;3.00;2.00;;;;;19.83;42.09;100776.28;5058334;28;45346;-52
2022/11/24 10:42:38;;;;;;;;;1.00;1.00;;;;;19.78;42.02;100765.16;5037113;28;45493;-52
2022/11/24 10:45:13;;;;;;;;;4.00;3.00;;;;;19.83;41.56;100772.78;5040029;28;45451;-52
2022/11/24 10:47:40;;;;;;;;;3.00;1.00;;;;;19.65;41.51;100737.81;5060918;28;44749;-44
2022/11/24 10:50:14;;;;;;;;;2.00;1.00;;;;;19.84;42.19;100763.97;5042305;28;45308;-43
2022/11/24 10:52:43;;;;;;;;;2.50;1.50;;;;;19.83;41.88;100763.13;5059676;28;45424;-42
2022/11/24 10:55:09;;;;;;;;;2.50;2.00;;;;;19.84;41.97;100761.34;5075379;28;45257;-48
2022/11/24 10:57:37;;;;;;;;;3.00;3.00;;;;;19.83;41.67;100755.25;5077580;28;44645;-45
2022/11/24 11:00:25;;;;;;;;;1.00;0.50;;;;;19.85;41.78;100758.63;5070063;28;45410;-45
2022/11/24 11:03:16;;;;;;;;;2.00;1.00;;;;;19.80;41.95;100749.28;5058311;28;45556;-45
2022/11/24 11:05:47;;;;;;;;;1.00;0.00;;;;;19.79;41.89;100745.81;5065434;28;45473;-43
2022/11/24 11:08:13;;;;;;;;;2.00;2.00;;;;;19.85;41.74;100747.28;5064825;28;45350;-43
2022/11/24 11:10:39;;;;;;;;;2.00;1.25;;;;;19.85;41.65;100749.91;5058513;28;45423;-45
2022/11/24 11:13:28;;;;;;;;;2.50;1.50;;;;;19.85;41.64;100744.63;5060699;28;46398;-44
2022/11/24 11:15:55;;;;;;;;;4.25;2.75;;;;;19.84;41.54;100741.19;5060515;28;45831;-47
2022/11/24 11:18:21;;;;;;;;;1.75;1.75;;;;;19.77;42.17;100730.13;5062652;28;45622;-45
2022/11/24 11:20:55;;;;;;;;;1.25;1.00;;;;;19.83;41.72;100739.47;5056955;28;45590;-45
2022/11/24 11:23:25;;;;;;;;;3.00;2.25;;;;;19.84;42.09;100735.03;5056827;28;45664;-48
2022/11/24 11:26:23;;;;;;;;;2.75;1.00;;;;;19.84;41.74;100732.41;5055619;28;45795;-44
2022/11/24 11:29:13;;;;;;;;;2.25;2.00;;;;;19.84;41.62;100740.31;5083822;28;44704;-45
2022/11/24 11:31:39;;;;;;;;;3.00;3.00;;;;;19.83;41.72;100720.19;5061100;28;45345;-44
2022/11/24 11:34:08;;;;;;;;;1.75;1.75;;;;;19.76;42.02;100712.66;5056700;28;46929;-44
2022/11/24 11:36:38;;;;;;;;;2.75;1.00;;;;;19.82;42.06;100722.00;5056258;28;45770;-43
2022/11/24 11:39:03;;;;;;;;;3.00;1.25;;;;;19.82;41.58;100708.84;5056991;28;45314;-44
2022/11/24 11:41:35;;;;;;;;;2.50;1.00;;;;;19.83;41.54;100709.69;5056665;28;45562;-45
2022/11/24 11:44:19;;;;;;;;;3.00;3.00;;;;;19.83;42.07;100700.03;5056422;28;45289;-45
2022/11/24 11:46:45;;;;;;;;;2.00;1.00;;;;;19.83;42.22;100704.41;5056573;28;45387;-44
2022/11/24 11:49:12;;;;;;;;;3.50;2.00;;;;;19.83;42.19;100699.16;5056773;28;45501;-42
2022/11/24 11:51:59;;;;;;;;;3.25;1.00;;;;;19.85;42.12;100702.56;5056854;28;45299;-44
2022/11/24 11:54:32;;;;;;;;;2.50;2.00;;;;;19.84;42.28;100693.84;5056405;28;46101;-44
2022/11/24 11:57:12;;;;;;;;;2.50;2.50;;;;;19.86;42.21;100696.41;5056530;28;45182;-44
2022/11/24 12:00:06;;;;;;;;;3.00;1.50;;;;;19.86;41.91;100688.50;5056751;28;45276;-44
2022/11/24 12:02:47;;;;;;;;;2.75;2.00;;;;;19.85;42.25;100692.03;5056966;28;45315;-44
2022/11/24 12:05:46;;;;;;;;;2.25;2.25;;;;;19.85;41.84;100687.59;5056361;28;45402;-47
2022/11/24 12:08:37;;;;;;;;;1.75;1.75;;;;;19.84;42.34;100683.31;5056441;28;45473;-44
2022/11/24 12:11:19;;;;;;;;;3.00;1.00;;;;;19.84;42.21;100677.19;5056921;28;45243;-44
2022/11/24 12:14:00;;;;;;;;;3.25;2.00;;;;;19.83;42.03;100670.22;5056813;28;45598;-42
2022/11/24 12:16:31;;;;;;;;;2.50;1.00;;;;;19.83;42.26;100680.75;5056314;28;46005;-47
2022/11/24 12:19:26;;;;;;;;;2.50;2.00;;;;;19.82;42.28;100669.41;5056349;28;45296;-45
2022/11/24 12:21:54;;;;;;;;;2.25;2.25;;;;;19.82;42.20;100672.03;5057032;28;45362;-43
2022/11/24 12:24:29;;;;;;;;;3.50;2.00;;;;;19.82;42.37;100665.91;5074140;28;45543;-42
2022/11/24 12:27:02;;;;;;;;;4.00;2.50;;;;;19.82;42.69;100665.91;5067154;28;45234;-45
2022/11/24 12:29:40;;;;;;;;;2.25;2.25;;;;;19.81;42.84;100675.59;5056758;28;45223;-43
2022/11/24 12:32:35;;;;;;;;;3.75;2.00;;;;;19.75;42.33;100661.00;5057273;28;45287;-44
2022/11/24 12:35:18;;;;;;;;;2.50;1.00;;;;;19.83;42.56;100672.84;5059701;28;45593;-44
2022/11/24 12:38:02;;;;;;;;;5.00;4.00;;;;;19.83;42.30;100657.06;5075075;28;45743;-44
2022/11/24 12:40:56;;;;;;;;;2.00;2.00;;;;;19.76;42.99;100657.44;5085284;28;45051;-43
2022/11/24 12:43:31;;;;;;;;;2.00;2.00;;;;;19.82;42.49;100664.13;5013173;28;44720;-46
2022/11/24 12:46:00;;;;;;;;;2.00;2.00;;;;;19.76;42.43;100652.16;5085969;28;44748;-44
2022/11/24 12:48:46;;;;;;;;;3.00;2.75;;;;;19.82;42.60;100661.50;5075710;28;47160;-49
2022/11/24 12:51:20;;;;;;;;;5.00;3.00;;;;;19.82;42.41;100661.50;5072862;28;45476;-46
2022/11/24 12:53:51;;;;;;;;;7.50;2.00;;;;;19.82;43.02;100653.63;5060888;28;45424;-45
2022/11/24 12:56:26;;;;;;;;;3.00;2.00;;;;;19.81;42.73;100658.94;5060349;28;45405;-45
2022/11/24 12:59:24;;;;;;;;;2.00;2.00;;;;;19.81;42.64;100651.91;5061681;28;45382;-43
2022/11/24 13:02:00;;;;;;;;;5.00;2.00;;;;;19.81;42.65;100643.16;5017062;28;45263;-44
2022/11/24 13:05:01;;;;;;;;;3.25;3.25;;;;;19.75;42.32;100636.47;5065824;28;45269;-43
2022/11/24 13:07:38;;;;;;;;;3.00;3.00;;;;;19.80;42.64;100636.19;5066151;28;45505;-43
2022/11/24 13:10:22;;;;;;;;;4.25;2.50;;;;;19.78;42.73;100629.28;5066387;28;46102;-45
2022/11/24 13:13:11;;;;;;;;;3.50;3.00;;;;;19.77;42.96;100627.56;5066087;28;45370;-44
2022/11/24 13:15:51;;;;;;;;;3.00;1.50;;;;;19.77;42.77;100622.31;5066078;28;45365;-44
2022/11/24 13:18:45;;;;;;;;;3.25;1.00;;;;;19.76;42.26;100620.63;5065733;28;45589;-43
2022/11/24 13:21:50;;;;;;;;;2.75;2.00;;;;;19.76;42.55;100617.97;5065821;28;46227;-47
2022/11/24 13:24:15;;;;;;;;;2.25;2.00;;;;;19.76;42.29;100615.34;5084977;28;45069;-45
2022/11/24 13:26:41;;;;;;;;;3.00;2.00;;;;;19.69;42.79;100607.88;5063172;28;45351;-46
2022/11/24 13:29:26;;;;;;;;;3.67;3.00;;;;;19.75;42.52;100607.53;5059408;28;45594;-44
2022/11/24 13:31:53;;;;;;;;;2.75;2.25;;;;;19.69;42.44;100602.63;5058839;28;45533;-43
2022/11/24 13:34:44;;;;;;;;;2.50;2.50;;;;;19.75;42.71;100613.66;5060008;28;45171;-47
2022/11/24 13:37:29;;;;;;;;;2.00;1.00;;;;;19.74;42.25;100619.84;5062196;28;45434;-45
2022/11/24 13:40:19;;;;;;;;;1.50;1.50;;;;;19.74;42.71;100617.22;5062508;28;45503;-44
2022/11/24 13:42:54;;;;;;;;;3.00;2.00;;;;;19.74;42.28;100611.97;5070139;28;46584;-43
2022/11/24 13:45:38;;;;;;;;;8.25;1.50;;;;;19.74;42.65;100619.84;5086098;28;45043;-42
2022/11/24 13:48:19;;;;;;;;;2.00;2.00;;;;;19.74;42.41;100606.69;5067981;28;45274;-46
2022/11/24 13:50:51;;;;;;;;;2.75;1.75;;;;;19.73;42.60;100605.00;5060512;28;45586;-43
2022/11/24 13:53:19;;;;;;;;;2.75;2.75;;;;;19.74;42.52;100605.84;5059143;28;47238;-44
2022/11/24 13:56:02;;;;;;;;;2.75;1.00;;;;;19.73;42.43;100609.41;5072348;28;45465;-45
2022/11/24 13:58:41;;;;;;;;;2.00;2.00;;;;;19.72;42.52;100611.19;5069745;28;45327;-44
2022/11/24 14:01:31;;;;;;;;;4.00;1.75;;;;;19.73;42.38;100614.69;5075716;28;45339;-43
2022/11/24 14:04:14;;;;;;;;;3.00;2.00;;;;;19.72;42.64;100618.25;5084112;28;45310;-44
2022/11/24 14:06:40;;;;;;;;;3.00;1.75;;;;;19.70;42.08;100631.44;5077722;28;45056;-46
2022/11/24 14:09:30;;;;;;;;;4.00;2.25;;;;;19.64;42.23;100616.03;5070842;28;45380;-45
2022/11/24 14:12:00;;;;;;;;;4.00;2.25;;;;;19.69;42.55;100637.63;5063143;28;45394;-44
2022/11/24 14:14:26;;;;;;;;;2.75;2.00;;;;;19.70;42.20;100635.88;5082929;28;46371;-47
2022/11/24 14:17:21;;;;;;;;;1.00;1.00;;;;;19.69;42.59;100634.19;5069298;28;45366;-44
2022/11/24 14:19:49;;;;;;;;;4.00;1.75;;;;;19.68;42.52;100624.59;5058161;28;45401;-42
2022/11/24 14:22:33;;;;;;;;;2.00;2.00;;;;;19.62;42.74;100615.25;5058779;28;45330;-42
2022/11/24 14:25:01;;;;;;;;;1.75;1.00;;;;;19.67;42.17;100620.25;5058105;28;45504;-43
2022/11/24 14:27:34;;;;;;;;;2.00;1.00;;;;;19.60;42.43;100604.84;5058201;28;45507;-43
2022/11/24 14:30:03;;;;;;;;;3.25;2.25;;;;;19.68;42.12;100621.97;5061741;28;45335;-46
2022/11/24 14:32:28;;;;;;;;;5.00;2.00;;;;;19.60;42.27;100596.09;5086253;28;45212;-46
2022/11/24 14:34:55;;;;;;;;;1.00;0.50;;;;;19.65;42.22;100601.94;5065592;28;45232;-42
2022/11/24 14:37:21;;;;;;;;;2.00;2.00;;;;;19.65;42.25;100601.94;5058444;28;45801;-44
2022/11/24 14:39:47;;;;;;;;;2.50;1.75;;;;;19.65;42.20;100586.19;5058054;28;45417;-45
2022/11/24 14:42:19;;;;;;;;;5.00;2.00;;;;;19.65;42.30;100580.06;5058324;28;45450;-43
2022/11/24 14:44:57;;;;;;;;;3.50;2.50;;;;;19.64;42.21;100579.22;5057875;28;46106;-45
2022/11/24 14:47:26;;;;;;;;;4.50;3.00;;;;;19.58;42.13;100569.03;5057554;28;45862;-42
2022/11/24 14:49:52;;;;;;;;;2.00;1.25;;;;;19.63;42.48;100572.25;5059738;28;45334;-46
2022/11/24 14:52:22;;;;;;;;;2.00;1.75;;;;;19.63;42.52;100577.53;5076427;28;45276;-46
2022/11/24 14:54:50;;;;;;;;;1.50;1.50;;;;;19.63;42.38;100577.53;5066339;28;46242;-47
2022/11/24 14:57:30;;;;;;;;;4.00;2.00;;;;;19.57;42.48;100567.34;5057912;28;45814;-43
2022/11/24 15:00:14;;;;;;;;;2.00;2.00;;;;;19.60;42.17;100561.91;5057559;28;45311;-45
2022/11/24 15:03:15;;;;;;;;;3.50;3.00;;;;;19.63;42.45;100574.91;5057691;28;45742;-45
2022/11/24 15:05:59;;;;;;;;;3.00;2.00;;;;;19.55;42.25;100563.97;5057201;28;46269;-42
2022/11/24 15:08:28;;;;;;;;;2.00;2.00;;;;;19.56;42.14;100563.03;5057198;28;45346;-44
2022/11/24 15:11:00;;;;;;;;;1.25;1.25;;;;;19.61;42.38;100577.63;5057655;28;45354;-43
2022/11/24 15:13:32;;;;;;;;;2.00;2.00;;;;;19.54;42.19;100570.97;5057794;28;45663;-44
2022/11/24 15:16:16;;;;;;;;;3.00;2.00;;;;;19.62;42.73;100581.91;5058052;28;46187;-45
2022/11/24 15:18:47;;;;;;;;;2.00;1.00;;;;;19.55;42.12;100563.97;5083638;28;45066;-45
2022/11/24 15:21:14;;;;;;;;;2.00;2.00;;;;;19.61;42.41;100568.88;5063546;28;45223;-46
2022/11/24 15:23:40;;;;;;;;;3.50;2.00;;;;;19.60;42.73;100568.03;5057903;28;45260;-49
2022/11/24 15:26:06;;;;;;;;;2.75;2.75;;;;;19.59;42.61;100558.44;5055878;28;45306;-44
2022/11/24 15:28:32;;;;;;;;;1.33;1.00;;;;;19.60;42.75;100561.91;5057391;28;45735;-47
2022/11/24 15:31:02;;;;;;;;;2.00;2.00;;;;;19.59;42.67;100563.72;5062033;28;45481;-45
2022/11/24 15:33:29;;;;;;;;;4.00;1.00;;;;;19.59;42.52;100566.34;5079490;28;44737;-43
2022/11/24 15:35:54;;;;;;;;;3.00;1.50;;;;;19.56;42.63;100569.13;5063403;28;47404;-47
2022/11/24 15:38:20;;;;;;;;;3.00;2.00;;;;;19.53;42.37;100561.41;5057194;28;45209;-43
2022/11/24 15:40:49;;;;;;;;;4.00;3.00;;;;;19.57;42.40;100567.34;5057524;28;45250;-42
2022/11/24 15:43:32;;;;;;;;;3.00;1.25;;;;;19.58;42.28;100563.78;5058087;28;45334;-43
2022/11/24 15:45:59;;;;;;;;;2.00;2.00;;;;;19.51;42.27;100552.78;5056516;28;46424;-43
2022/11/24 15:48:25;;;;;;;;;1.75;1.75;;;;;19.50;42.32;100548.44;5056744;28;45475;-45
2022/11/24 15:50:52;;;;;;;;;3.00;2.75;;;;;19.56;42.68;100555.97;5056908;28;45311;-45
2022/11/24 15:53:24;;;;;;;;;4.00;2.00;;;;;19.55;42.36;100558.72;5057283;28;45339;-41
2022/11/24 15:55:51;;;;;;;;;3.25;2.00;;;;;19.55;42.35;100556.91;5056966;28;46384;-45
2022/11/24 15:58:17;;;;;;;;;1.50;1.50;;;;;19.49;42.75;100548.50;5057273;28;45731;-43
2022/11/24 16:00:43;;;;;;;;;2.00;2.00;;;;;19.54;42.70;100549.13;5057228;28;45255;-44
2022/11/24 16:03:09;;;;;;;;;4.00;2.50;;;;;19.48;42.74;100534.53;5058096;28;45573;-45
2022/11/24 16:05:39;;;;;;;;;1.50;1.50;;;;;19.52;42.47;100538.69;5067516;28;46405;-44
2022/11/24 16:08:10;;;;;;;;;4.50;2.00;;;;;19.54;42.49;100531.56;5071411;28;45442;-47
2022/11/24 16:10:36;;;;;;;;;3.50;2.00;;;;;19.55;42.22;100528.00;5067308;28;45130;-43
2022/11/24 16:13:01;;;;;;;;;2.50;1.75;;;;;19.53;42.40;100524.59;5065323;28;45536;-43
2022/11/24 16:15:27;;;;;;;;;1.00;1.00;;;;;19.52;42.47;100517.66;5080242;28;45379;-45
2022/11/24 16:17:52;;;;;;;;;3.00;2.00;;;;;19.54;42.32;100531.56;5072641;28;45415;-46
2022/11/24 16:20:17;;;;;;;;;3.50;2.00;;;;;19.53;42.23;100529.84;5059132;28;45287;-46
2022/11/24 16:22:43;;;;;;;;;1.50;1.00;;;;;19.52;42.66;100532.59;5060187;28;45520;-44
2022/11/24 16:25:09;;;;;;;;;1.75;1.75;;;;;19.46;42.73;100529.34;5070588;28;45330;-44
2022/11/24 16:27:35;;;;;;;;;3.00;2.00;;;;;19.52;42.44;100532.59;5065301;28;45379;-43
2022/11/24 16:30:00;;;;;;;;;2.25;2.25;;;;;19.52;42.79;100543.09;5061105;28;45377;-46
2022/11/24 16:32:26;;;;;;;;;2.75;1.50;;;;;19.51;42.52;100537.00;5060485;28;45345;-45
2022/11/24 16:34:52;;;;;;;;;2.75;2.00;;;;;19.51;42.95;100534.38;5059920;28;47932;-45
2022/11/24 16:37:20;;;;;;;;;5.50;1.50;;;;;19.51;42.47;100536.13;5060170;28;45276;-46
2022/11/24 16:39:46;;;;;;;;;3.50;2.00;;;;;19.50;42.79;100537.94;5060958;28;45236;-46
2022/11/24 16:42:12;;;;;;;;;2.00;2.00;;;;;19.51;42.46;100531.75;5043593;28;45419;-45
2022/11/24 16:44:37;;;;;;;;;3.00;2.00;;;;;19.52;42.84;100537.84;5061768;28;51497;-43
2022/11/24 16:47:03;;;;;;;;;2.75;2.75;;;;;19.51;42.41;100547.53;5058366;28;51426;-42
2022/11/24 16:49:28;;;;;;;;;2.00;2.00;;;;;19.51;43.00;100542.25;5055515;28;45594;-43
2022/11/24 16:51:54;;;;;;;;;4.25;2.00;;;;;19.45;42.36;100526.81;5057199;28;45296;-45
2022/11/24 16:54:19;;;;;;;;;3.25;3.00;;;;;19.50;42.68;100535.31;5062118;28;45601;-46
2022/11/24 16:56:45;;;;;;;;;4.25;3.00;;;;;19.51;42.44;100536.13;5060717;28;45362;-47
2022/11/24 16:59:10;;;;;;;;;1.50;1.50;;;;;19.42;42.50;100527.84;5058084;28;45253;-45
2022/11/24 17:01:38;;;;;;;;;3.75;2.00;;;;;19.51;42.96;100538.78;5057737;28;45392;-42
2022/11/24 17:04:04;;;;;;;;;3.00;3.00;;;;;19.43;42.64;100521.66;5058631;28;47081;-44
2022/11/24 17:06:31;;;;;;;;;2.50;1.00;;;;;19.50;42.55;100532.69;5069715;28;45205;-45
2022/11/24 17:08:57;;;;;;;;;3.75;3.00;;;;;19.43;42.83;100512.91;5078930;28;45401;-42
2022/11/24 17:11:24;;;;;;;;;1.50;1.00;;;;;19.50;42.67;100526.56;5076405;28;44857;-48
2022/11/24 17:13:50;;;;;;;;;5.00;2.00;;;;;19.49;43.08;100527.50;5080216;28;46037;-44
2022/11/24 17:16:18;;;;;;;;;2.25;2.00;;;;;19.49;42.82;100527.50;5063561;28;45489;-43
2022/11/24 17:18:44;;;;;;;;;4.00;3.00;;;;;19.41;42.92;100520.88;5057265;28;45418;-45
2022/11/24 17:21:15;;;;;;;;;3.00;2.00;;;;;19.42;42.42;100516.47;5057442;28;45512;-44
2022/11/24 17:23:41;;;;;;;;;3.25;2.00;;;;;19.42;42.94;100513.84;5059110;28;46167;-44
2022/11/24 17:26:10;;;;;;;;;3.50;2.50;;;;;19.48;42.63;100534.53;5081864;28;44730;-47
2022/11/24 17:28:36;;;;;;;;;1.25;1.00;;;;;19.47;42.82;100524.94;5070355;28;45261;-44
2022/11/24 17:31:30;;;;;;;;;4.00;3.00;;;;;19.48;42.79;100531.91;5077253;28;45296;-45
2022/11/24 17:33:57;;;;;;;;;3.00;3.00;;;;;19.47;42.48;100527.59;5084294;28;46197;-46
2022/11/24 17:36:23;;;;;;;;;1.50;1.50;;;;;19.47;42.66;100520.53;5070224;28;45847;-45
2022/11/24 17:38:49;;;;;;;;;3.00;3.00;;;;;19.46;42.46;100529.34;5062045;28;45371;-42
2022/11/24 17:41:14;;;;;;;;;4.00;2.50;;;;;19.46;42.50;100525.88;5059923;28;45328;-45
2022/11/24 17:43:40;;;;;;;;;5.00;2.25;;;;;19.47;42.67;100525.78;5058588;28;46104;-44
2022/11/24 17:46:05;;;;;;;;;4.00;3.00;;;;;19.47;42.90;100530.22;5058636;28;45291;-45
2022/11/24 17:48:31;;;;;;;;;4.50;2.00;;;;;19.47;43.13;100531.03;5058329;28;45565;-44
2022/11/24 17:51:02;;;;;;;;;3.00;3.00;;;;;19.46;43.09;100524.09;5060858;28;45517;-43
2022/11/24 17:53:27;;;;;;;;;5.25;2.50;;;;;19.45;42.54;100525.06;5077497;28;46148;-46
2022/11/24 17:55:53;;;;;;;;;7.25;3.00;;;;;19.46;43.08;100534.59;5074047;28;45295;-43
2022/11/24 17:58:18;;;;;;;;;2.75;2.00;;;;;19.45;42.67;100532.94;5058885;28;45348;-44
2022/11/24 18:00:44;;;;;;;;;3.25;3.25;;;;;19.46;42.67;100529.34;5058618;28;45659;-43
2022/11/24 18:03:09;;;;;;;;;4.25;2.50;;;;;19.45;42.83;100526.81;5058367;28;46291;-44
2022/11/24 18:05:35;;;;;;;;;2.75;2.25;;;;;19.39;43.23;100521.91;5058162;28;46494;-46
2022/11/24 18:08:00;;;;;;;;;3.00;3.00;;;;;19.45;43.11;100529.44;5058542;28;45509;-47
2022/11/24 18:10:26;;;;;;;;;3.25;3.00;;;;;19.44;42.77;100531.25;5059228;28;45482;-42
2022/11/24 18:12:51;;;;;;;;;1.25;1.00;;;;;19.45;43.12;100545.22;5060487;28;45651;-43
2022/11/24 18:15:16;;;;;;;;;3.00;3.00;;;;;19.39;42.58;100527.16;5069800;28;45226;-45
2022/11/24 18:17:42;;;;;;;;;4.00;1.33;;;;;19.38;43.16;100526.31;5067991;28;52441;-43
2022/11/24 18:20:07;;;;;;;;;4.67;3.00;;;;;19.39;42.98;100525.38;5058078;28;58543;-43
2022/11/24 18:22:33;;;;;;;;;4.75;3.75;;;;;19.38;43.17;100522.84;5059362;28;46878;-43
2022/11/24 18:24:58;;;;;;;;;3.00;3.00;;;;;19.38;43.23;100520.22;5060791;28;45306;-44
2022/11/24 18:27:23;;;;;;;;;3.00;2.50;;;;;19.44;42.93;100527.75;5058598;28;45373;-43
2022/11/24 18:29:49;;;;;;;;;4.25;3.00;;;;;19.41;42.67;100520.88;5058211;28;45251;-45
2022/11/24 18:32:14;;;;;;;;;3.00;2.00;;;;;19.42;43.18;100522.59;5058822;28;57767;-44
2022/11/24 18:34:39;;;;;;;;;4.25;3.75;;;;;19.43;43.16;100526.03;5073881;28;45743;-42
2022/11/24 18:37:04;;;;;;;;;4.33;4.00;;;;;19.43;42.96;100518.16;5071682;28;46262;-48
2022/11/24 18:39:30;;;;;;;;;3.75;3.00;;;;;19.42;43.06;100529.59;5065450;28;45478;-43
2022/11/24 18:41:55;;;;;;;;;4.00;4.00;;;;;19.41;43.25;100526.16;5074414;28;45267;-43
2022/11/24 18:44:20;;;;;;;;;3.67;3.67;;;;;19.41;42.71;100525.28;5075060;28;59595;-45
2022/11/24 18:46:47;;;;;;;;;6.25;2.25;;;;;19.42;42.82;100527.84;5077155;28;45328;-44
2022/11/24 18:49:13;;;;;;;;;3.25;3.25;;;;;19.40;43.20;100524.44;5064092;28;45343;-47
2022/11/24 18:51:38;;;;;;;;;3.25;3.00;;;;;19.36;43.21;100517.66;5057948;28;47008;-46
2022/11/24 18:54:04;;;;;;;;;4.00;4.00;;;;;19.40;42.87;100516.56;5057535;28;54732;-43
2022/11/24 18:56:29;;;;;;;;;3.25;3.25;;;;;19.40;42.97;100519.19;5059625;28;45336;-42
2022/11/24 18:58:55;;;;;;;;;4.75;4.00;;;;;19.40;43.40;100518.34;5059194;28;45632;-44
2022/11/24 19:01:26;;;;;;;;;3.25;3.25;;;;;19.40;43.38;100511.31;5057998;28;45393;-44
2022/11/24 19:03:57;;;;;;;;;2.75;2.25;;;;;19.35;42.77;100500.19;5058075;28;45823;-43
2022/11/24 19:06:27;;;;;;;;;4.25;3.00;;;;;19.39;43.16;100514.88;5064534;28;45439;-44
2022/11/24 19:08:53;;;;;;;;;8.00;5.75;;;;;19.40;43.26;100508.69;5079276;28;44891;-43
2022/11/24 19:11:21;;;;;;;;;3.50;3.50;;;;;19.34;43.04;100500.28;5058562;28;47116;-42
2022/11/24 19:13:47;;;;;;;;;11.50;4.00;;;;;19.33;43.16;100509.97;5057299;28;45263;-44
2022/11/24 19:16:14;;;;;;;;;3.00;3.00;;;;;19.39;43.29;100506.97;5057505;28;45242;-44
2022/11/24 19:18:39;;;;;;;;;4.00;3.00;;;;;19.39;42.82;100506.97;5057546;28;45287;-45
2022/11/24 19:21:05;;;;;;;;;7.25;4.25;;;;;19.37;43.24;100497.50;5057323;28;45335;-42
2022/11/24 19:23:30;;;;;;;;;3.00;3.00;;;;;19.39;43.43;100508.78;5058455;28;45240;-45
2022/11/24 19:25:59;;;;;;;;;6.25;4.75;;;;;19.39;43.27;100506.16;5061685;28;45410;-46
2022/11/24 19:28:25;;;;;;;;;6.25;4.00;;;;;19.37;43.08;100503.59;5060746;28;45402;-47
2022/11/24 19:30:50;;;;;;;;;4.00;3.75;;;;;19.38;42.92;100499.19;5060173;28;46357;-45
2022/11/24 19:33:17;;;;;;;;;3.33;3.33;;;;;19.38;43.17;100491.31;5068352;28;56726;-45
2022/11/24 19:35:43;;;;;;;;;4.50;3.00;;;;;19.37;43.14;100495.69;5071893;28;45156;-43
2022/11/24 19:38:08;;;;;;;;;4.00;3.50;;;;;19.38;43.08;100497.41;5062423;28;45561;-46
2022/11/24 19:40:33;;;;;;;;;6.00;3.00;;;;;19.36;43.04;100491.38;5060739;28;64524;-43
2022/11/24 19:42:59;;;;;;;;;7.00;5.00;;;;;19.36;43.00;100490.53;5068863;28;44588;-46
2022/11/24 19:45:24;;;;;;;;;4.75;4.75;;;;;19.30;43.48;100484.69;5076054;28;45128;-42
2022/11/24 19:47:50;;;;;;;;;4.25;2.75;;;;;19.36;43.02;100501.88;5059326;28;45328;-45
2022/11/24 19:50:16;;;;;;;;;3.00;3.00;;;;;19.34;42.87;100487.16;5058800;28;47087;-44
2022/11/24 19:52:41;;;;;;;;;2.50;2.50;;;;;19.36;42.94;100488.75;5056975;28;45223;-46
2022/11/24 19:55:07;;;;;;;;;2.00;2.00;;;;;19.36;43.34;100491.38;5057718;28;45397;-45
2022/11/24 19:57:32;;;;;;;;;4.50;3.50;;;;;19.35;43.45;100484.41;5057739;28;45473;-46
2022/11/24 19:59:58;;;;;;;;;5.25;4.00;;;;;19.35;42.91;100484.41;5056674;28;45322;-46
2022/11/24 20:02:23;;;;;;;;;5.25;4.25;;;;;19.28;43.21;100473.44;5057111;28;45383;-44
2022/11/24 20:04:48;;;;;;;;;5.25;3.25;;;;;19.36;43.45;100485.28;5058447;28;45417;-44
2022/11/24 20:07:14;;;;;;;;;3.50;3.25;;;;;19.35;43.25;100489.69;5074084;28;45514;-42
2022/11/24 20:09:39;;;;;;;;;3.75;3.75;;;;;19.35;43.11;100489.69;5068863;28;46070;-46
2022/11/24 20:12:05;;;;;;;;;6.00;3.50;;;;;19.28;43.01;100477.81;5058747;28;45789;-43
2022/11/24 20:14:30;;;;;;;;;3.75;3.25;;;;;19.36;43.50;100493.16;5073486;28;45308;-45
2022/11/24 20:16:55;;;;;;;;;4.00;4.00;;;;;19.35;42.85;100492.31;5084907;28;46131;-44
2022/11/24 20:19:21;;;;;;;;;5.67;4.33;;;;;19.33;42.87;100491.56;5071125;28;66518;-48
2022/11/24 20:21:48;;;;;;;;;2.75;2.75;;;;;19.35;42.91;100500.19;5057260;28;45554;-44